Clifton, South Carolina
Current Conditions -  °F | °C
As of 5:15 PM on Saturday 25 Oct 2014 (Local Time) from KSPA Reporting Station
Clear Clear  
Wind Chill: 77°   Ceiling: Unl
Heat Index: 77°   Visibility: 10mi
Dew Point: 37°   Wind: 6mph
Humidity: 24%   Direction: 230°SW
Pressure: 29.95"   Gusts: NA
Location:  34.98°N, 81.82°W
Report Text: KSPA 252115Z AUTO 23005KT 10SM CLR 25/03 A2995 RMK AO2
Loading
Personal Weather Stations






























Interactive Weather Map
Tropical Storm Tracking
New forecast layout! Learn more

10-Day Weather Forecast

Advertisements
Track Severe Weather on mobile